createdAt,value
2023-04-16T00:00:44.911Z,1011.85
2023-04-16T00:01:44.902Z,1011.85
2023-04-16T00:02:44.987Z,1011.85
2023-04-16T00:03:45.109Z,1011.86
2023-04-16T00:04:45.052Z,1011.87
2023-04-16T00:05:44.855Z,1011.87
2023-04-16T00:06:44.862Z,1011.88
2023-04-16T00:07:44.811Z,1011.89
2023-04-16T00:08:44.825Z,1011.89
2023-04-16T00:09:44.800Z,1011.86
2023-04-16T00:10:44.842Z,1011.86
2023-04-16T00:11:44.785Z,1011.87
2023-04-16T00:12:44.806Z,1011.87
2023-04-16T00:13:44.766Z,1011.88
2023-04-16T00:14:44.762Z,1011.88
2023-04-16T00:15:44.742Z,1011.88
2023-04-16T00:16:44.802Z,1011.89
2023-04-16T00:17:44.759Z,1011.90
2023-04-16T00:18:44.723Z,1011.90
2023-04-16T00:19:44.688Z,1011.89
2023-04-16T00:20:44.697Z,1011.88
2023-04-16T00:21:44.691Z,1011.89
2023-04-16T00:22:44.720Z,1011.88
2023-04-16T00:23:44.667Z,1011.86
2023-04-16T00:24:44.670Z,1011.84
2023-04-16T00:25:44.710Z,1011.85
2023-04-16T00:26:44.701Z,1011.85
2023-04-16T00:27:44.624Z,1011.85
2023-04-16T00:28:44.661Z,1011.85
2023-04-16T00:29:44.600Z,1011.85
2023-04-16T00:30:44.637Z,1011.85
2023-04-16T00:31:44.580Z,1011.85
2023-04-16T00:32:44.623Z,1011.84
2023-04-16T00:33:44.547Z,1011.84
2023-04-16T00:34:44.584Z,1011.83
2023-04-16T00:35:44.528Z,1011.84
2023-04-16T00:36:44.553Z,1011.83
2023-04-16T00:37:44.515Z,1011.88
2023-04-16T00:38:44.514Z,1011.89
2023-04-16T00:39:44.477Z,1011.89
2023-04-16T00:40:44.520Z,1011.88
2023-04-16T00:41:44.460Z,1011.87
2023-04-16T00:42:44.470Z,1011.86
2023-04-16T00:43:44.439Z,1011.84
2023-04-16T00:44:44.466Z,1011.85
2023-04-16T00:45:44.427Z,1011.85
2023-04-16T00:46:44.592Z,1011.85
2023-04-16T00:47:44.454Z,1011.85
2023-04-16T00:48:44.417Z,1011.85
2023-04-16T00:49:44.381Z,1011.85
2023-04-16T00:50:44.428Z,1011.84
2023-04-16T00:51:44.354Z,1011.85
2023-04-16T00:52:44.399Z,1011.86
2023-04-16T00:53:44.335Z,1011.87
2023-04-16T00:54:44.404Z,1011.87
2023-04-16T00:55:44.331Z,1011.88
2023-04-16T00:56:44.325Z,1011.89
2023-04-16T00:57:44.320Z,1011.92
2023-04-16T00:58:44.317Z,1011.95
2023-04-16T00:59:44.292Z,1011.97
2023-04-16T01:00:44.283Z,1011.99
2023-04-16T01:01:44.304Z,1012.02
2023-04-16T01:02:44.402Z,1012.04
2023-04-16T01:03:44.372Z,1012.04
2023-04-16T01:04:44.237Z,1012.04
2023-04-16T01:05:44.237Z,1012.04
2023-04-16T01:06:44.203Z,1012.05
2023-04-16T01:07:44.216Z,1012.07
2023-04-16T01:08:44.190Z,1012.06
2023-04-16T01:09:44.196Z,1012.07
2023-04-16T01:10:44.182Z,1012.07
2023-04-16T01:11:44.178Z,1012.07
2023-04-16T01:12:44.149Z,1012.05
2023-04-16T01:13:44.153Z,1012.03
2023-04-16T01:14:44.117Z,1012.03
2023-04-16T01:15:44.168Z,1012.00
2023-04-16T01:16:44.119Z,1012.02
2023-04-16T01:17:44.140Z,1012.05
2023-04-16T01:18:44.090Z,1012.06
2023-04-16T01:19:44.106Z,1012.06
2023-04-16T01:20:44.056Z,1012.04
2023-04-16T01:21:44.072Z,1012.06
2023-04-16T01:22:44.061Z,1012.05
2023-04-16T01:23:44.066Z,1012.06
2023-04-16T01:24:44.042Z,1012.07
2023-04-16T01:25:44.024Z,1012.09
2023-04-16T01:26:44.022Z,1012.09
2023-04-16T01:27:44.018Z,1012.12
2023-04-16T01:28:43.993Z,1012.10
2023-04-16T01:29:44.004Z,1012.09
2023-04-16T01:30:43.988Z,1012.11
2023-04-16T01:31:43.982Z,1012.10
2023-04-16T01:32:43.949Z,1012.09
2023-04-16T01:33:43.958Z,1012.12
2023-04-16T01:34:43.938Z,1012.13
2023-04-16T01:35:43.965Z,1012.13
2023-04-16T01:36:43.895Z,1012.12
2023-04-16T01:37:43.921Z,1012.14
2023-04-16T01:38:43.876Z,1012.15
2023-04-16T01:39:43.916Z,1012.16
2023-04-16T01:40:44.822Z,1012.15
2023-04-16T01:41:43.876Z,1012.17
2023-04-16T01:42:43.853Z,1012.17
2023-04-16T01:43:43.871Z,1012.16
2023-04-16T01:44:43.815Z,1012.18
2023-04-16T01:45:43.820Z,1012.18
2023-04-16T01:46:43.833Z,1012.17
2023-04-16T01:47:43.865Z,1012.20
2023-04-16T01:48:43.785Z,1012.20
2023-04-16T01:49:43.778Z,1012.19
2023-04-16T01:50:43.784Z,1012.18
2023-04-16T01:51:43.785Z,1012.19
2023-04-16T01:52:43.764Z,1012.20
2023-04-16T01:53:43.734Z,1012.22
2023-04-16T01:54:43.703Z,1012.21
2023-04-16T01:55:43.729Z,1012.23
2023-04-16T01:56:43.690Z,1012.23
2023-04-16T01:57:43.705Z,1012.24
2023-04-16T01:58:43.719Z,1012.25
2023-04-16T01:59:43.706Z,1012.25
2023-04-16T02:00:43.692Z,1012.23
2023-04-16T02:01:43.729Z,1012.26
2023-04-16T02:02:43.755Z,1012.25
2023-04-16T02:03:43.776Z,1012.24
2023-04-16T02:04:43.619Z,1012.22
2023-04-16T02:05:43.763Z,1012.22
2023-04-16T02:06:43.583Z,1012.21
2023-04-16T02:07:43.651Z,1012.21
2023-04-16T02:08:43.561Z,1012.19
2023-04-16T02:09:43.577Z,1012.21
2023-04-16T02:10:43.579Z,1012.22
2023-04-16T02:11:43.584Z,1012.20
2023-04-16T02:12:43.527Z,1012.20
2023-04-16T02:13:43.527Z,1012.20
2023-04-16T02:14:43.498Z,1012.18
2023-04-16T02:15:43.533Z,1012.14
2023-04-16T02:16:43.516Z,1012.16
2023-04-16T02:17:43.521Z,1012.17
2023-04-16T02:18:43.451Z,1012.18
2023-04-16T02:19:43.465Z,1012.18
2023-04-16T02:20:43.455Z,1012.20
2023-04-16T02:21:43.463Z,1012.21
2023-04-16T02:22:43.453Z,1012.22
2023-04-16T02:23:43.476Z,1012.23
2023-04-16T02:24:43.402Z,1012.24
2023-04-16T02:25:43.499Z,1012.24
2023-04-16T02:26:43.371Z,1012.24
2023-04-16T02:27:43.381Z,1012.24
2023-04-16T02:28:43.377Z,1012.25
2023-04-16T02:29:43.387Z,1012.24
2023-04-16T02:30:43.352Z,1012.22
2023-04-16T02:31:43.412Z,1012.22
2023-04-16T02:32:43.340Z,1012.19
2023-04-16T02:33:43.326Z,1012.19
2023-04-16T02:34:43.315Z,1012.20
2023-04-16T02:35:43.296Z,1012.19
2023-04-16T02:36:43.285Z,1012.19
2023-04-16T02:37:43.299Z,1012.19
2023-04-16T02:38:43.251Z,1012.20
2023-04-16T02:39:43.253Z,1012.20
2023-04-16T02:40:43.274Z,1012.21
2023-04-16T02:41:43.237Z,1012.19
2023-04-16T02:42:43.197Z,1012.18
2023-04-16T02:43:43.237Z,1012.18
2023-04-16T02:44:43.186Z,1012.17
2023-04-16T02:45:43.196Z,1012.19
2023-04-16T02:46:43.187Z,1012.19
2023-04-16T02:47:43.242Z,1012.19
2023-04-16T02:48:43.136Z,1012.21
2023-04-16T02:49:43.165Z,1012.23
2023-04-16T02:50:43.124Z,1012.23
2023-04-16T02:51:43.130Z,1012.24
2023-04-16T02:52:43.141Z,1012.24
2023-04-16T02:53:43.109Z,1012.25
2023-04-16T02:54:43.090Z,1012.26
2023-04-16T02:55:43.086Z,1012.26
2023-04-16T02:56:43.060Z,1012.27
2023-04-16T02:57:43.107Z,1012.27
2023-04-16T02:58:43.069Z,1012.28
2023-04-16T02:59:43.052Z,1012.30
2023-04-16T03:00:43.012Z,1012.30
2023-04-16T03:01:43.063Z,1012.29
2023-04-16T03:02:43.106Z,1012.29
2023-04-16T03:03:43.015Z,1012.30
2023-04-16T03:04:43.060Z,1012.32
2023-04-16T03:05:42.987Z,1012.33
2023-04-16T03:06:42.953Z,1012.34
2023-04-16T03:07:42.980Z,1012.35
2023-04-16T03:08:42.952Z,1012.37
2023-04-16T03:09:42.951Z,1012.38
2023-04-16T03:10:42.932Z,1012.38
2023-04-16T03:11:42.934Z,1012.38
2023-04-16T03:12:42.928Z,1012.36
2023-04-16T03:13:42.958Z,1012.36
2023-04-16T03:14:42.940Z,1012.36
2023-04-16T03:15:42.923Z,1012.31
2023-04-16T03:16:42.932Z,1012.36
2023-04-16T03:17:42.929Z,1012.37
2023-04-16T03:18:42.867Z,1012.37
2023-04-16T03:19:42.887Z,1012.38
2023-04-16T03:20:42.808Z,1012.39
2023-04-16T03:21:42.840Z,1012.40
2023-04-16T03:22:42.831Z,1012.42
2023-04-16T03:23:42.793Z,1012.46
2023-04-16T03:24:42.804Z,1012.47
2023-04-16T03:25:42.772Z,1012.49
2023-04-16T03:26:42.767Z,1012.50
2023-04-16T03:27:42.745Z,1012.50
2023-04-16T03:28:42.766Z,1012.49
2023-04-16T03:29:42.713Z,1012.48
2023-04-16T03:30:42.739Z,1012.45
2023-04-16T03:31:42.836Z,1012.45
2023-04-16T03:32:42.751Z,1012.45
2023-04-16T03:33:42.668Z,1012.44
2023-04-16T03:34:42.702Z,1012.42
2023-04-16T03:35:42.669Z,1012.44
2023-04-16T03:36:42.793Z,1012.45
2023-04-16T03:37:42.639Z,1012.46
2023-04-16T03:38:42.674Z,1012.46
2023-04-16T03:39:42.615Z,1012.46
2023-04-16T03:40:42.624Z,1012.46
2023-04-16T03:41:42.594Z,1012.46
2023-04-16T03:42:42.628Z,1012.45
2023-04-16T03:43:42.578Z,1012.44
2023-04-16T03:44:42.584Z,1012.43
2023-04-16T03:45:42.548Z,1012.43
2023-04-16T03:46:42.589Z,1012.44
2023-04-16T03:47:42.596Z,1012.44
2023-04-16T03:48:42.546Z,1012.46
2023-04-16T03:49:42.527Z,1012.45
2023-04-16T03:50:42.520Z,1012.45
2023-04-16T03:51:42.484Z,1012.45
2023-04-16T03:52:42.497Z,1012.45
2023-04-16T03:53:42.503Z,1012.45
2023-04-16T03:54:42.455Z,1012.45
2023-04-16T03:55:42.483Z,1012.47
2023-04-16T03:56:42.434Z,1012.50
2023-04-16T03:57:42.448Z,1012.51
2023-04-16T03:58:42.437Z,1012.52
2023-04-16T03:59:42.424Z,1012.50
2023-04-16T04:00:42.398Z,1012.50
2023-04-16T04:01:42.454Z,1012.52
2023-04-16T04:02:42.654Z,1012.53
2023-04-16T04:03:42.594Z,1012.54
2023-04-16T04:04:42.467Z,1012.54
2023-04-16T04:05:42.367Z,1012.54
2023-04-16T04:06:42.351Z,1012.54
2023-04-16T04:07:42.342Z,1012.56
2023-04-16T04:08:42.309Z,1012.55
2023-04-16T04:09:42.357Z,1012.54
2023-04-16T04:10:42.295Z,1012.54
2023-04-16T04:11:42.313Z,1012.55
2023-04-16T04:12:42.284Z,1012.55
2023-04-16T04:13:42.281Z,1012.55
2023-04-16T04:14:42.249Z,1012.55
2023-04-16T04:15:42.277Z,1012.56
2023-04-16T04:16:42.323Z,1012.57
2023-04-16T04:17:42.276Z,1012.57
2023-04-16T04:18:44.316Z,1012.58
2023-04-16T04:19:47.156Z,1012.58
2023-04-16T04:20:42.204Z,1012.59
2023-04-16T04:21:42.200Z,1012.60
2023-04-16T04:22:42.178Z,1012.61
2023-04-16T04:23:42.192Z,1012.63
2023-04-16T04:24:42.144Z,1012.61
2023-04-16T04:25:42.156Z,1012.62
2023-04-16T04:26:42.211Z,1012.64
2023-04-16T04:27:42.138Z,1012.64
2023-04-16T04:28:42.101Z,1012.64
2023-04-16T04:29:42.120Z,1012.64
2023-04-16T04:30:42.091Z,1012.64
2023-04-16T04:31:42.130Z,1012.65
2023-04-16T04:32:42.088Z,1012.65
2023-04-16T04:33:42.072Z,1012.66
2023-04-16T04:34:42.037Z,1012.66
2023-04-16T04:35:42.060Z,1012.66
2023-04-16T04:36:42.021Z,1012.67
2023-04-16T04:37:42.056Z,1012.68
2023-04-16T04:38:42.024Z,1012.69
2023-04-16T04:39:42.012Z,1012.70
2023-04-16T04:40:41.980Z,1012.71
2023-04-16T04:41:41.987Z,1012.72
2023-04-16T04:42:42.010Z,1012.73
2023-04-16T04:43:41.968Z,1012.74
2023-04-16T04:44:41.933Z,1012.75
2023-04-16T04:45:41.975Z,1012.76
2023-04-16T04:46:41.940Z,1012.76
2023-04-16T04:47:41.956Z,1012.80
2023-04-16T04:48:41.928Z,1012.80
2023-04-16T04:49:41.912Z,1012.82
2023-04-16T04:50:41.881Z,1012.83
2023-04-16T04:51:41.907Z,1012.85
2023-04-16T04:52:41.851Z,1012.86
2023-04-16T04:53:41.887Z,1012.87
2023-04-16T04:54:41.876Z,1012.86
2023-04-16T04:55:41.850Z,1012.87
2023-04-16T04:56:41.819Z,1012.88
2023-04-16T04:57:41.868Z,1012.89
2023-04-16T04:58:41.788Z,1012.89
2023-04-16T04:59:41.816Z,1012.89
2023-04-16T05:00:41.771Z,1012.91
2023-04-16T05:01:41.851Z,1012.93
2023-04-16T05:02:41.870Z,1012.92
2023-04-16T05:03:41.900Z,1012.92
2023-04-16T05:04:41.830Z,1012.92
2023-04-16T05:05:41.744Z,1012.91
2023-04-16T05:06:41.735Z,1012.91
2023-04-16T05:07:41.718Z,1012.91
2023-04-16T05:08:41.683Z,1012.94
2023-04-16T05:09:41.709Z,1012.97
2023-04-16T05:10:41.689Z,1013.01
2023-04-16T05:11:41.693Z,1013.02
2023-04-16T05:12:41.660Z,1013.02
2023-04-16T05:13:41.659Z,1013.05
2023-04-16T05:14:41.651Z,1013.03
2023-04-16T05:15:41.665Z,1013.05
2023-04-16T05:16:41.757Z,1013.06
2023-04-16T05:17:41.676Z,1013.08
2023-04-16T05:18:41.590Z,1013.09
2023-04-16T05:19:41.591Z,1013.09
2023-04-16T05:20:41.574Z,1013.10
2023-04-16T05:21:41.599Z,1013.13
2023-04-16T05:22:41.546Z,1013.14
2023-04-16T05:23:41.556Z,1013.12
2023-04-16T05:24:41.533Z,1013.11
2023-04-16T05:25:41.532Z,1013.13
2023-04-16T05:26:41.532Z,1013.13
2023-04-16T05:27:41.518Z,1013.14
2023-04-16T05:28:41.493Z,1013.16
2023-04-16T05:29:41.499Z,1013.18
2023-04-16T05:30:41.543Z,1013.19
2023-04-16T05:31:41.513Z,1013.20
2023-04-16T05:32:41.532Z,1013.22
2023-04-16T05:33:41.490Z,1013.22
2023-04-16T05:34:41.438Z,1013.25
2023-04-16T05:35:41.453Z,1013.25
2023-04-16T05:36:41.427Z,1013.26
2023-04-16T05:37:41.452Z,1013.27
2023-04-16T05:38:41.380Z,1013.29
2023-04-16T05:39:41.449Z,1013.31
2023-04-16T05:40:41.367Z,1013.32
2023-04-16T05:41:41.413Z,1013.34
2023-04-16T05:42:41.343Z,1013.36
2023-04-16T05:43:42.193Z,1013.39
2023-04-16T05:44:41.372Z,1013.38
2023-04-16T05:45:41.461Z,1013.40
2023-04-16T05:46:41.368Z,1013.40
2023-04-16T05:47:41.483Z,1013.43
2023-04-16T05:48:41.907Z,1013.42
2023-04-16T05:49:41.320Z,1013.45
2023-04-16T05:50:41.273Z,1013.47
2023-04-16T05:51:41.266Z,1013.46
2023-04-16T05:52:41.240Z,1013.47
2023-04-16T05:53:41.250Z,1013.48
2023-04-16T05:54:41.208Z,1013.50
2023-04-16T05:55:41.325Z,1013.51
2023-04-16T05:56:41.471Z,1013.52
2023-04-16T05:57:41.207Z,1013.51
2023-04-16T05:58:41.201Z,1013.49
2023-04-16T05:59:41.188Z,1013.52
2023-04-16T06:00:41.164Z,1013.51
2023-04-16T06:01:47.716Z,1013.52
2023-04-16T06:02:41.403Z,1013.53
2023-04-16T06:03:41.175Z,1013.53
2023-04-16T06:04:41.240Z,1013.53
2023-04-16T06:05:41.207Z,1013.54
2023-04-16T06:06:41.103Z,1013.56
2023-04-16T06:07:41.082Z,1013.54
2023-04-16T06:08:41.067Z,1013.55
2023-04-16T06:09:41.074Z,1013.55
2023-04-16T06:10:41.068Z,1013.56
2023-04-16T06:11:41.044Z,1013.57
2023-04-16T06:12:41.032Z,1013.60
2023-04-16T06:13:41.043Z,1013.61
2023-04-16T06:14:41.030Z,1013.62
2023-04-16T06:15:41.041Z,1013.61
2023-04-16T06:16:40.978Z,1013.60
2023-04-16T06:17:41.055Z,1013.62
2023-04-16T06:18:40.966Z,1013.63
2023-04-16T06:19:40.984Z,1013.63
2023-04-16T06:20:40.940Z,1013.66
2023-04-16T06:21:40.952Z,1013.67
2023-04-16T06:22:40.909Z,1013.69
2023-04-16T06:23:40.942Z,1013.71
2023-04-16T06:24:40.883Z,1013.70
2023-04-16T06:25:40.915Z,1013.70
2023-04-16T06:26:40.856Z,1013.70
2023-04-16T06:27:40.880Z,1013.72
2023-04-16T06:28:40.865Z,1013.73
2023-04-16T06:29:41.864Z,1013.74
2023-04-16T06:30:42.734Z,1013.74
2023-04-16T06:31:40.878Z,1013.74
2023-04-16T06:32:40.889Z,1013.75
2023-04-16T06:33:40.812Z,1013.76
2023-04-16T06:34:40.808Z,1013.76
2023-04-16T06:35:40.785Z,1013.78
2023-04-16T06:36:40.830Z,1013.80
2023-04-16T06:37:40.761Z,1013.80
2023-04-16T06:38:40.748Z,1013.81
2023-04-16T06:39:40.785Z,1013.83
2023-04-16T06:40:40.756Z,1013.84
2023-04-16T06:41:40.892Z,1013.86
2023-04-16T06:42:41.436Z,1013.86
2023-04-16T06:43:40.702Z,1013.86
2023-04-16T06:44:40.671Z,1013.88
2023-04-16T06:45:40.809Z,1013.89
2023-04-16T06:46:41.282Z,1013.85
2023-04-16T06:47:40.766Z,1013.91
2023-04-16T06:48:40.632Z,1013.90
2023-04-16T06:49:40.664Z,1013.91
2023-04-16T06:50:40.645Z,1013.94
2023-04-16T06:51:40.655Z,1013.95
2023-04-16T06:52:40.612Z,1013.95
2023-04-16T06:53:40.637Z,1013.94
2023-04-16T06:54:40.561Z,1013.93
2023-04-16T06:55:40.574Z,1013.93
2023-04-16T06:56:40.576Z,1013.96
2023-04-16T06:57:40.642Z,1013.96
2023-04-16T06:58:40.548Z,1014.00
2023-04-16T06:59:40.590Z,1014.00
2023-04-16T07:00:40.688Z,1014.02
2023-04-16T07:01:40.516Z,1014.02
2023-04-16T07:02:40.607Z,1014.05
2023-04-16T07:03:40.694Z,1014.06
2023-04-16T07:04:40.483Z,1014.06
2023-04-16T07:05:40.473Z,1014.06
2023-04-16T07:06:40.448Z,1014.10
2023-04-16T07:07:40.474Z,1014.12
2023-04-16T07:08:40.426Z,1014.10
2023-04-16T07:09:40.464Z,1014.11
2023-04-16T07:10:40.452Z,1014.10
2023-04-16T07:11:40.419Z,1014.12
2023-04-16T07:12:40.400Z,1014.14
2023-04-16T07:13:40.392Z,1014.14
2023-04-16T07:14:40.380Z,1014.13
2023-04-16T07:15:40.394Z,1014.13
2023-04-16T07:16:40.372Z,1014.15
2023-04-16T07:17:40.392Z,1014.17
2023-04-16T07:18:40.318Z,1014.16
2023-04-16T07:19:40.330Z,1014.15
2023-04-16T07:20:40.324Z,1014.13
2023-04-16T07:21:40.316Z,1014.14
2023-04-16T07:22:40.302Z,1014.16
2023-04-16T07:23:40.288Z,1014.15
2023-04-16T07:24:40.265Z,1014.16
2023-04-16T07:25:40.269Z,1014.17
2023-04-16T07:26:40.271Z,1014.16
2023-04-16T07:27:40.251Z,1014.17
2023-04-16T07:28:40.221Z,1014.18
2023-04-16T07:29:40.249Z,1014.20
2023-04-16T07:30:40.190Z,1014.21
2023-04-16T07:31:40.226Z,1014.21
2023-04-16T07:32:40.234Z,1014.21
2023-04-16T07:33:40.185Z,1014.21
2023-04-16T07:34:40.153Z,1014.22
2023-04-16T07:35:40.171Z,1014.22
2023-04-16T07:36:40.134Z,1014.22
2023-04-16T07:37:40.139Z,1014.23
2023-04-16T07:38:40.149Z,1014.23
2023-04-16T07:39:40.126Z,1014.24
2023-04-16T07:40:40.087Z,1014.26
2023-04-16T07:41:40.102Z,1014.27
2023-04-16T07:42:40.066Z,1014.27
2023-04-16T07:43:40.085Z,1014.28
2023-04-16T07:44:40.071Z,1014.28
2023-04-16T07:45:41.338Z,1014.29
2023-04-16T07:46:47.050Z,1014.28
2023-04-16T07:47:40.063Z,1014.29
2023-04-16T07:48:40.005Z,1014.27
2023-04-16T07:49:40.030Z,1014.27
2023-04-16T07:50:40.025Z,1014.29
2023-04-16T07:51:40.002Z,1014.30
2023-04-16T07:52:39.964Z,1014.32
2023-04-16T07:53:39.977Z,1014.32
2023-04-16T07:54:39.941Z,1014.33
2023-04-16T07:55:39.953Z,1014.33
2023-04-16T07:56:39.940Z,1014.33
2023-04-16T07:57:39.952Z,1014.32
2023-04-16T07:58:39.901Z,1014.33
2023-04-16T07:59:39.911Z,1014.35
2023-04-16T08:00:39.880Z,1014.36
2023-04-16T08:01:39.888Z,1014.37
2023-04-16T08:02:40.043Z,1014.40
2023-04-16T08:03:40.124Z,1014.42
2023-04-16T08:04:39.920Z,1014.43
2023-04-16T08:05:39.853Z,1014.43
2023-04-16T08:06:39.850Z,1014.46
2023-04-16T08:07:39.804Z,1014.46
2023-04-16T08:08:39.838Z,1014.48
2023-04-16T08:09:39.785Z,1014.50
2023-04-16T08:10:39.803Z,1014.52
2023-04-16T08:11:39.771Z,1014.52
2023-04-16T08:12:39.778Z,1014.54
2023-04-16T08:13:39.745Z,1014.54
2023-04-16T08:14:39.800Z,1014.55
2023-04-16T08:15:39.771Z,1014.56
2023-04-16T08:16:39.737Z,1014.59
2023-04-16T08:17:39.746Z,1014.61
2023-04-16T08:18:39.728Z,1014.63
2023-04-16T08:19:39.683Z,1014.63
2023-04-16T08:20:39.722Z,1014.67
2023-04-16T08:21:39.671Z,1014.67
2023-04-16T08:22:39.679Z,1014.70
2023-04-16T08:23:39.635Z,1014.72
2023-04-16T08:24:39.656Z,1014.74
2023-04-16T08:25:39.617Z,1014.75
2023-04-16T08:26:39.797Z,1014.75
2023-04-16T08:27:39.615Z,1014.78
2023-04-16T08:28:39.611Z,1014.78
2023-04-16T08:29:39.575Z,1014.79
2023-04-16T08:30:39.602Z,1014.82
2023-04-16T08:31:39.703Z,1014.80
2023-04-16T08:32:39.662Z,1014.81
2023-04-16T08:33:39.551Z,1014.82
2023-04-16T08:34:39.574Z,1014.85
2023-04-16T08:35:39.529Z,1014.85
2023-04-16T08:36:39.541Z,1014.85
2023-04-16T08:37:39.528Z,1014.87
2023-04-16T08:38:39.579Z,1014.87
2023-04-16T08:39:39.514Z,1014.88
2023-04-16T08:40:39.498Z,1014.88
2023-04-16T08:41:39.458Z,1014.87
2023-04-16T08:42:39.478Z,1014.87
2023-04-16T08:43:39.435Z,1014.88
2023-04-16T08:44:39.474Z,1014.88
2023-04-16T08:45:39.408Z,1014.90
2023-04-16T08:46:39.496Z,1014.90
2023-04-16T08:47:39.413Z,1014.92
2023-04-16T08:48:39.423Z,1014.93
2023-04-16T08:49:39.372Z,1014.94
2023-04-16T08:50:39.406Z,1014.93
2023-04-16T08:51:39.346Z,1014.93
2023-04-16T08:52:39.360Z,1014.93
2023-04-16T08:53:39.345Z,1014.95
2023-04-16T08:54:40.958Z,1014.96
2023-04-16T08:55:39.332Z,1014.97
2023-04-16T08:56:40.825Z,1014.96
2023-04-16T08:57:39.292Z,1014.98
2023-04-16T08:58:39.306Z,1014.99
2023-04-16T08:59:39.274Z,1015.00
2023-04-16T09:00:39.283Z,1015.00
2023-04-16T09:01:39.279Z,1015.02
2023-04-16T09:02:39.545Z,1015.01
2023-04-16T09:03:39.376Z,1015.01
2023-04-16T09:04:39.388Z,1014.99
2023-04-16T09:05:39.233Z,1015.00
2023-04-16T09:06:39.221Z,1015.02
2023-04-16T09:07:39.182Z,1015.01
2023-04-16T09:08:39.214Z,1015.04
2023-04-16T09:09:39.162Z,1015.05
2023-04-16T09:10:39.176Z,1015.05
2023-04-16T09:11:39.147Z,1015.05
2023-04-16T09:12:39.160Z,1015.07
2023-04-16T09:13:39.111Z,1015.07
2023-04-16T09:14:39.170Z,1015.07
2023-04-16T09:15:39.096Z,1015.08
2023-04-16T09:16:39.266Z,1015.07
2023-04-16T09:17:39.118Z,1015.06
2023-04-16T09:18:39.106Z,1015.07
2023-04-16T09:19:39.076Z,1015.05
2023-04-16T09:20:39.117Z,1015.04
2023-04-16T09:21:39.041Z,1015.05
2023-04-16T09:22:39.046Z,1015.06
2023-04-16T09:23:39.078Z,1015.07
2023-04-16T09:24:39.033Z,1015.08
2023-04-16T09:25:39.008Z,1015.09
2023-04-16T09:26:39.034Z,1015.12
2023-04-16T09:27:38.992Z,1015.14
2023-04-16T09:28:39.001Z,1015.14
2023-04-16T09:29:38.953Z,1015.13
2023-04-16T09:30:38.977Z,1015.14
2023-04-16T09:31:38.997Z,1015.15
2023-04-16T09:32:38.974Z,1015.16
2023-04-16T09:33:38.919Z,1015.16
2023-04-16T09:34:38.920Z,1015.17
2023-04-16T09:35:38.900Z,1015.17
2023-04-16T09:36:38.905Z,1015.18
2023-04-16T09:37:38.893Z,1015.18
2023-04-16T09:38:38.881Z,1015.19
2023-04-16T09:39:38.890Z,1015.21
2023-04-16T09:40:38.864Z,1015.22
2023-04-16T09:41:38.828Z,1015.22
2023-04-16T09:42:38.865Z,1015.20
2023-04-16T09:43:38.825Z,1015.20
2023-04-16T09:44:38.821Z,1015.22
2023-04-16T09:45:38.808Z,1015.23
2023-04-16T09:46:38.837Z,1015.25
2023-04-16T09:47:38.797Z,1015.26
2023-04-16T09:48:38.794Z,1015.26
2023-04-16T09:49:38.742Z,1015.28
2023-04-16T09:50:38.796Z,1015.27
2023-04-16T09:51:38.751Z,1015.28
2023-04-16T09:52:38.751Z,1015.31
2023-04-16T09:53:38.718Z,1015.33
2023-04-16T09:54:38.716Z,1015.31
2023-04-16T09:55:38.688Z,1015.33
2023-04-16T09:56:38.742Z,1015.31
2023-04-16T09:57:38.668Z,1015.33
2023-04-16T09:58:38.678Z,1015.33
2023-04-16T09:59:38.660Z,1015.35
2023-04-16T10:00:42.265Z,1015.35
2023-04-16T10:01:38.646Z,1015.35
2023-04-16T10:02:39.252Z,1015.36
2023-04-16T10:03:38.845Z,1015.36
2023-04-16T10:04:38.698Z,1015.36
2023-04-16T10:05:38.581Z,1015.36
2023-04-16T10:06:38.610Z,1015.36
2023-04-16T10:07:38.560Z,1015.38
2023-04-16T10:08:38.592Z,1015.38
2023-04-16T10:09:38.571Z,1015.40
2023-04-16T10:10:38.563Z,1015.40
2023-04-16T10:11:38.531Z,1015.40
2023-04-16T10:12:38.568Z,1015.40
2023-04-16T10:13:38.498Z,1015.41
2023-04-16T10:14:38.551Z,1015.39
2023-04-16T10:15:38.534Z,1015.39
2023-04-16T10:16:38.529Z,1015.40
2023-04-16T10:17:38.540Z,1015.40
2023-04-16T10:18:38.463Z,1015.41
2023-04-16T10:19:38.452Z,1015.39
2023-04-16T10:20:38.442Z,1015.40
2023-04-16T10:21:38.451Z,1015.38
2023-04-16T10:22:38.433Z,1015.39
2023-04-16T10:23:38.391Z,1015.40
2023-04-16T10:24:38.410Z,1015.41
2023-04-16T10:25:38.373Z,1015.40
2023-04-16T10:26:38.399Z,1015.40
2023-04-16T10:27:38.353Z,1015.41
2023-04-16T10:28:38.416Z,1015.40
2023-04-16T10:29:38.339Z,1015.40
2023-04-16T10:30:38.392Z,1015.41
2023-04-16T10:31:38.306Z,1015.39
2023-04-16T10:32:38.414Z,1015.39
2023-04-16T10:33:38.285Z,1015.41
2023-04-16T10:34:38.319Z,1015.42
2023-04-16T10:35:38.274Z,1015.42
2023-04-16T10:36:38.291Z,1015.43
2023-04-16T10:37:38.282Z,1015.42
2023-04-16T10:38:38.256Z,1015.42
2023-04-16T10:39:38.251Z,1015.41
2023-04-16T10:40:38.239Z,1015.42
2023-04-16T10:41:38.219Z,1015.42
2023-04-16T10:42:38.221Z,1015.41
2023-04-16T10:43:38.207Z,1015.40
2023-04-16T10:44:38.217Z,1015.41
2023-04-16T10:45:38.151Z,1015.39
2023-04-16T10:46:38.305Z,1015.38
2023-04-16T10:47:38.167Z,1015.38
2023-04-16T10:48:48.587Z,1015.39
2023-04-16T10:49:38.112Z,1015.38
2023-04-16T10:50:38.125Z,1015.38
2023-04-16T10:51:38.148Z,1015.37
2023-04-16T10:52:38.103Z,1015.39
2023-04-16T10:53:38.072Z,1015.38
2023-04-16T10:54:38.095Z,1015.39
2023-04-16T10:55:38.047Z,1015.38
2023-04-16T10:56:38.073Z,1015.37
2023-04-16T10:57:38.020Z,1015.38
2023-04-16T10:58:38.055Z,1015.38
2023-04-16T10:59:38.039Z,1015.38
2023-04-16T11:00:38.028Z,1015.37
2023-04-16T11:01:38.117Z,1015.38
2023-04-16T11:02:38.375Z,1015.38
2023-04-16T11:03:38.080Z,1015.39
2023-04-16T11:04:38.214Z,1015.39
2023-04-16T11:05:37.951Z,1015.38
2023-04-16T11:06:37.961Z,1015.38
2023-04-16T11:07:37.918Z,1015.38
2023-04-16T11:08:51.179Z,1015.40
2023-04-16T11:09:37.909Z,1015.39
2023-04-16T11:10:37.938Z,1015.40
2023-04-16T11:11:37.882Z,1015.38
2023-04-16T11:12:38.349Z,1015.37
2023-04-16T11:13:37.858Z,1015.38
2023-04-16T11:14:37.879Z,1015.39
2023-04-16T11:15:37.833Z,1015.38
2023-04-16T11:16:37.871Z,1015.38
2023-04-16T11:17:37.864Z,1015.39
2023-04-16T11:18:37.828Z,1015.38
2023-04-16T11:19:37.797Z,1015.37
2023-04-16T11:20:37.805Z,1015.37
2023-04-16T11:21:37.792Z,1015.37
2023-04-16T11:22:37.782Z,1015.37
2023-04-16T11:23:37.753Z,1015.37
2023-04-16T11:24:37.781Z,1015.35
2023-04-16T11:25:37.739Z,1015.34
2023-04-16T11:26:37.751Z,1015.33
2023-04-16T11:27:37.717Z,1015.33
2023-04-16T11:28:37.725Z,1015.31
2023-04-16T11:29:37.693Z,1015.33
2023-04-16T11:30:37.710Z,1015.33
2023-04-16T11:31:37.769Z,1015.33
2023-04-16T11:32:37.739Z,1015.33
2023-04-16T11:33:37.647Z,1015.35
2023-04-16T11:34:37.661Z,1015.35
2023-04-16T11:35:37.624Z,1015.35
2023-04-16T11:36:37.653Z,1015.36
2023-04-16T11:37:37.621Z,1015.36
2023-04-16T11:38:37.642Z,1015.36
2023-04-16T11:39:37.588Z,1015.35
2023-04-16T11:40:37.612Z,1015.36
2023-04-16T11:41:37.565Z,1015.36
2023-04-16T11:42:37.689Z,1015.38
2023-04-16T11:43:37.574Z,1015.37
2023-04-16T11:44:37.577Z,1015.38
2023-04-16T11:45:37.534Z,1015.39
2023-04-16T11:46:37.563Z,1015.39
2023-04-16T11:47:37.544Z,1015.41
2023-04-16T11:48:37.522Z,1015.41
2023-04-16T11:49:37.492Z,1015.43
2023-04-16T11:50:37.491Z,1015.43
2023-04-16T11:51:37.455Z,1015.45
2023-04-16T11:52:37.472Z,1015.45
2023-04-16T11:53:37.447Z,1015.45
2023-04-16T11:54:37.472Z,1015.45
2023-04-16T11:55:37.414Z,1015.45
2023-04-16T11:56:37.441Z,1015.45
2023-04-16T11:57:37.399Z,1015.45
2023-04-16T11:58:37.401Z,1015.43
2023-04-16T11:59:37.409Z,1015.43
2023-04-16T12:00:37.403Z,1015.43
2023-04-16T12:01:37.360Z,1015.42
2023-04-16T12:02:37.568Z,1015.42
2023-04-16T12:03:37.665Z,1015.41
2023-04-16T12:04:37.462Z,1015.43
2023-04-16T12:05:37.351Z,1015.44